Time;durP1;ratioP1;P1;durP2;ratioP2;P2;SDS_P1;SDS_P2;PMS_P1;PMS_P2;Temp;Humidity;BMP_temperature;BMP_pressure;BME280_temperature;BME280_humidity;BME280_pressure;Samples;Min_cycle;Max_cycle;Signal;HPM_P1;HPM_P2
2021/12/30 00:15:06;;;;;;;108.70;41.00;;;;;;;0.94;100.00;100011.28;21111342;27;1380164;-60
2021/12/30 00:35:07;;;;;;;108.20;41.57;;;;;;;1.02;100.00;100014.53;21158409;27;20615;-58
2021/12/30 00:45:11;;;;;;;91.17;37.93;;;;;;;1.11;100.00;100002.88;21123967;27;20220;-60
2021/12/30 00:55:15;;;;;;;102.60;38.60;;;;;;;1.18;100.00;100007.03;21210455;27;20222;-60
2021/12/30 01:15:17;;;;;;;98.20;36.37;;;;;;;1.31;100.00;99989.13;20988091;27;20570;-60
2021/12/30 01:25:21;;;;;;;84.47;36.00;;;;;;;1.37;100.00;99991.53;20973067;28;20233;-60
2021/12/30 01:35:26;;;;;;;78.23;35.87;;;;;;;1.42;100.00;99992.25;21010381;27;20707;-60
2021/12/30 01:45:29;;;;;;;88.50;37.70;;;;;;;1.46;100.00;99996.50;21088314;27;20247;-60
2021/12/30 02:05:30;;;;;;;77.10;32.90;;;;;;;1.52;100.00;99993.69;21160612;27;20734;-61
2021/12/30 02:15:33;;;;;;;80.73;35.37;;;;;;;1.57;100.00;100001.44;21140852;28;20591;-60
2021/12/30 02:25:37;;;;;;;72.23;33.50;;;;;;;1.62;100.00;100002.97;21140089;28;20541;-60
2021/12/30 02:45:36;;;;;;;68.73;29.13;;;;;;;1.80;100.00;100010.28;21146664;27;20955;-61
2021/12/30 02:55:41;;;;;;;65.07;27.37;;;;;;;1.86;100.00;100000.44;21223649;27;20214;-59
2021/12/30 03:05:44;;;;;;;65.20;28.37;;;;;;;1.87;100.00;99995.13;21225946;27;20253;-59
2021/12/30 03:15:48;;;;;;;74.10;31.00;;;;;;;1.88;100.00;99986.34;21225173;27;20221;-59
2021/12/30 03:25:51;;;;;;;66.87;29.70;;;;;;;1.86;100.00;100003.06;21222839;27;20231;-59
2021/12/30 03:45:55;;;;;;;54.27;26.97;;;;;;;2.02;100.00;100025.34;20894228;28;20310;-59
2021/12/30 03:55:58;;;;;;;70.03;30.47;;;;;;;2.07;100.00;100060.22;20873721;28;20218;-59
2021/12/30 04:06:02;;;;;;;55.50;27.43;;;;;;;2.00;100.00;100078.00;20872746;28;20242;-60
2021/12/30 04:26:03;;;;;;;60.67;30.90;;;;;;;2.07;100.00;100065.50;21218637;27;20574;-60
2021/12/30 04:36:07;;;;;;;65.10;31.40;;;;;;;2.19;100.00;100065.06;21226246;27;20230;-60
2021/12/30 04:56:06;;;;;;;65.67;30.77;;;;;;;2.27;100.00;100063.06;21158418;27;20572;-60
2021/12/30 05:06:10;;;;;;;67.73;31.53;;;;;;;2.29;100.00;100061.25;21140739;27;20300;-60
2021/12/30 05:16:15;;;;;;;59.50;29.63;;;;;;;2.30;100.00;100073.47;21120338;27;20213;-60
2021/12/30 05:26:18;;;;;;;70.50;32.57;;;;;;;2.30;100.00;100068.19;21140166;27;20232;-60
2021/12/30 05:36:22;;;;;;;60.93;27.43;;;;;;;2.35;100.00;100066.28;21207589;27;20922;-60
2021/12/30 05:46:27;;;;;;;74.40;32.27;;;;;;;2.38;100.00;100097.78;21220723;27;20238;-60
2021/12/30 05:56:30;;;;;;;106.20;33.47;;;;;;;2.36;100.00;100115.41;21222739;27;20253;-60
2021/12/30 06:16:32;;;;;;;100.80;27.90;;;;;;;2.35;100.00;100137.38;21065860;27;20574;-61
2021/12/30 06:26:39;;;;;;;75.93;29.07;;;;;;;2.39;100.00;100151.31;21054149;27;20233;-62
2021/12/30 06:36:43;;;;;;;59.90;24.63;;;;;;;2.45;100.00;100136.13;21056607;27;20314;-61
2021/12/30 06:56:44;;;;;;;51.40;25.13;;;;;;;2.62;100.00;100153.16;21061646;27;20578;-63
2021/12/30 07:06:47;;;;;;;56.50;26.80;;;;;;;2.66;100.00;100157.38;21083717;27;20224;-59
2021/12/30 07:26:47;;;;;;;63.90;26.13;;;;;;;2.71;100.00;100176.53;21229983;27;20574;-62
2021/12/30 07:36:50;;;;;;;58.10;24.90;;;;;;;2.84;100.00;100175.19;21226703;28;20231;-62
2021/12/30 07:46:54;;;;;;;58.93;25.97;;;;;;;3.04;100.00;100169.22;21208569;28;20216;-62
2021/12/30 07:56:57;;;;;;;60.77;26.07;;;;;;;3.28;100.00;100170.09;21225332;28;20217;-62
2021/12/30 08:07:00;;;;;;;60.43;25.63;;;;;;;3.32;100.00;100171.72;21207305;28;20236;-64
2021/12/30 08:17:04;;;;;;;70.80;28.37;;;;;;;3.52;100.00;100190.28;21223853;28;20233;-64
2021/12/30 08:27:12;;;;;;;63.87;27.00;;;;;;;3.80;100.00;100192.75;21205646;28;20217;-63
2021/12/30 08:37:16;;;;;;;68.37;29.07;;;;;;;4.16;100.00;100206.28;21153329;28;20336;-63
2021/12/30 08:47:19;;;;;;;68.90;28.43;;;;;;;4.25;100.00;100204.13;21165228;28;20225;-64
2021/12/30 09:17:15;;;;;;;72.17;28.63;;;;;;;4.03;100.00;100184.78;20988955;27;20580;-61
2021/12/30 09:27:18;;;;;;;67.33;29.33;;;;;;;4.24;100.00;100170.72;20974743;28;20313;-65
2021/12/30 09:37:22;;;;;;;85.87;34.20;;;;;;;4.61;100.00;100154.19;20974350;28;20265;-65
2021/12/30 09:47:25;;;;;;;90.47;35.30;;;;;;;4.80;100.00;100153.41;20973521;28;20739;-64
2021/12/30 09:57:29;;;;;;;86.10;34.53;;;;;;;4.71;100.00;100158.16;21042140;27;20287;-65
2021/12/30 10:07:32;;;;;;;72.80;33.97;;;;;;;4.63;100.00;100147.06;21054022;27;20969;-65
2021/12/30 10:17:36;;;;;;;91.23;39.00;;;;;;;4.63;100.00;100147.06;21054866;27;20319;-62
2021/12/30 10:27:39;;;;;;;122.20;45.67;;;;;;;4.76;100.00;100154.47;21003456;27;20245;-64
2021/12/30 10:37:47;;;;;;;98.07;38.73;;;;;;;4.98;100.00;100131.44;20997437;28;20658;-65
2021/12/30 10:47:55;;;;;;;82.73;37.33;;;;;;;5.18;100.00;100123.50;20996811;28;20254;-64
2021/12/30 10:57:59;;;;;;;77.33;36.97;;;;;;;5.40;100.00;100140.09;20995713;28;20822;-64
2021/12/30 11:08:04;;;;;;;78.97;36.50;;;;;;;5.49;100.00;100154.69;20911464;28;20331;-63
2021/12/30 11:18:13;;;;;;;79.47;36.50;;;;;;;5.78;100.00;100134.81;20911327;28;20235;-65
2021/12/30 11:28:16;;;;;;;67.50;34.67;;;;;;;6.07;100.00;100120.19;20909938;28;20636;-64
2021/12/30 11:38:19;;;;;;;64.47;32.87;;;;;;;5.93;100.00;100118.19;20950603;28;20236;-63
2021/12/30 11:48:32;;;;;;;58.07;31.60;;;;;;;5.52;100.00;100100.75;20991365;28;20686;-62
2021/12/30 11:58:40;;;;;;;57.23;30.43;;;;;;;5.58;100.00;100100.47;21022181;28;20247;-62
2021/12/30 12:08:46;;;;;;;63.50;31.50;;;;;;;5.53;100.00;100113.06;20988421;28;20245;-63
2021/12/30 12:19:10;;;;;;;60.53;31.03;;;;;;;5.40;100.00;100121.56;20989083;28;20254;-63
2021/12/30 12:29:42;;;;;;;59.80;30.73;;;;;;;5.24;100.00;100112.63;20987713;28;20251;-64
2021/12/30 12:39:57;;;;;;;68.90;34.27;;;;;;;5.22;100.00;100097.75;20982977;28;20697;-64
2021/12/30 12:50:08;;;;;;;64.20;33.93;;;;;;;5.03;100.00;100087.16;20985365;28;20242;-65
2021/12/30 13:00:12;;;;;;;63.17;33.90;;;;;;;4.81;100.00;100112.84;20968575;28;20261;-65
2021/12/30 13:10:20;;;;;;;66.03;33.63;;;;;;;4.61;100.00;100105.75;20984598;28;20231;-65
2021/12/30 13:20:27;;;;;;;73.83;36.73;;;;;;;4.43;100.00;100118.00;20986048;28;20222;-65
2021/12/30 13:30:30;;;;;;;86.20;40.20;;;;;;;4.29;100.00;100120.34;20985364;28;20254;-65
2021/12/30 13:40:40;;;;;;;73.93;36.33;;;;;;;4.19;100.00;100129.56;20984924;28;20223;-65
2021/12/30 14:00:46;;;;;;;89.93;38.33;;;;;;;4.06;100.00;100120.44;21061680;27;20579;-64
2021/12/30 14:11:01;;;;;;;100.77;41.53;;;;;;;4.03;100.00;100102.06;21058339;28;20221;-65
2021/12/30 14:21:06;;;;;;;90.00;36.93;;;;;;;3.91;100.00;100099.00;21051523;28;20313;-65
2021/12/30 14:41:10;;;;;;;109.13;39.77;;;;;;;3.79;100.00;100098.66;20990558;27;20569;-64
2021/12/30 14:51:20;;;;;;;97.73;37.47;;;;;;;3.80;100.00;100103.88;20974020;28;20739;-65
2021/12/30 15:01:23;;;;;;;115.03;40.67;;;;;;;3.81;100.00;100116.16;20971763;28;20306;-66
2021/12/30 15:11:29;;;;;;;116.50;39.47;;;;;;;3.77;100.00;100125.09;20970149;28;20230;-65
2021/12/30 15:31:32;;;;;;;143.50;41.03;;;;;;;3.82;100.00;100135.47;21187899;27;20571;-64
2021/12/30 15:41:37;;;;;;;110.50;35.47;;;;;;;3.67;100.00;100121.09;21226182;27;20609;-65
2021/12/30 16:21:58;;;;;;;147.50;37.60;;;;;;;3.88;100.00;100112.31;21056333;27;20569;-65
2021/12/30 16:52:03;;;;;;;120.43;30.97;;;;;;;3.69;100.00;100135.09;21159593;27;20654;-67
2021/12/30 17:02:09;;;;;;;134.60;31.73;;;;;;;3.71;100.00;100141.19;21139152;28;20586;-66
2021/12/30 17:12:15;;;;;;;129.57;32.10;;;;;;;3.71;100.00;100128.00;21141186;28;20222;-65
2021/12/30 17:22:18;;;;;;;135.17;32.23;;;;;;;3.85;100.00;100143.28;21139805;28;20618;-65
2021/12/30 17:32:21;;;;;;;160.73;36.80;;;;;;;3.84;100.00;100145.06;21137864;28;20252;-66
2021/12/30 17:42:27;;;;;;;110.03;29.87;;;;;;;3.90;100.00;100141.31;21138452;28;20280;-65
2021/12/30 17:52:31;;;;;;;130.90;32.33;;;;;;;3.90;100.00;100165.06;21137451;28;20241;-66
2021/12/30 18:02:34;;;;;;;158.63;32.43;;;;;;;3.92;100.00;100165.88;21082696;28;20233;-66
2021/12/30 18:12:38;;;;;;;153.80;30.47;;;;;;;4.01;100.00;100157.56;21077703;28;20218;-66
2021/12/30 18:22:42;;;;;;;138.43;27.27;;;;;;;4.08;100.00;100155.56;21079098;28;20234;-66
2021/12/30 18:32:47;;;;;;;202.13;30.77;;;;;;;4.14;100.00;100147.38;21076722;28;20252;-66
2021/12/30 18:42:51;;;;;;;185.33;27.73;;;;;;;4.17;100.00;100120.84;21076260;28;20222;-68
2021/12/30 18:52:54;;;;;;;132.60;26.07;;;;;;;4.18;100.00;100127.84;21056676;28;20594;-67
2021/12/30 19:02:58;;;;;;;145.60;26.57;;;;;;;4.23;100.00;100136.44;21074665;28;20255;-66
2021/12/30 19:23:01;;;;;;;216.87;34.10;;;;;;;4.27;100.00;100119.53;21079950;27;1833310;-67
2021/12/30 19:33:05;;;;;;;149.33;32.27;;;;;;;4.30;100.00;100153.75;21057741;28;20217;-64
2021/12/30 19:43:10;;;;;;;149.93;31.10;;;;;;;4.22;100.00;100135.59;21054234;28;20222;-66
2021/12/30 19:53:15;;;;;;;217.77;33.70;;;;;;;4.28;100.00;100140.63;21044088;28;20305;-66
2021/12/30 20:13:16;;;;;;;154.83;29.27;;;;;;;4.38;100.00;100172.78;21082584;27;20306;-67
2021/12/30 20:23:20;;;;;;;235.93;33.93;;;;;;;4.45;100.00;100158.41;21072782;28;20734;-68
2021/12/30 20:33:25;;;;;;;160.87;33.17;;;;;;;4.57;100.00;100157.03;20921465;28;20272;-68
2021/12/30 20:43:29;;;;;;;141.20;37.37;;;;;;;4.63;100.00;100154.97;21007994;28;20230;-68
2021/12/30 20:53:32;;;;;;;163.33;38.43;;;;;;;4.76;100.00;100138.59;21045767;28;20223;-66
2021/12/30 21:03:36;;;;;;;176.97;38.03;;;;;;;4.73;100.00;100144.88;21057817;28;20237;-66
2021/12/30 21:13:39;;;;;;;194.27;35.93;;;;;;;4.74;100.00;100137.81;21136273;28;20703;-66
2021/12/30 21:23:42;;;;;;;174.80;40.07;;;;;;;4.83;100.00;100140.91;21084589;28;20310;-68
2021/12/30 21:33:47;;;;;;;135.23;36.17;;;;;;;4.83;100.00;100121.56;21080207;28;20218;-68
2021/12/30 21:53:47;;;;;;;116.20;33.37;;;;;;;4.96;100.00;100080.41;21061061;27;20553;-67
2021/12/30 22:03:51;;;;;;;143.63;34.67;;;;;;;5.05;100.00;100077.38;21056405;28;20618;-67
2021/12/30 22:13:54;;;;;;;175.53;36.67;;;;;;;5.13;100.00;100069.06;21054938;28;20220;-68
2021/12/30 22:23:58;;;;;;;122.27;32.07;;;;;;;5.12;100.00;100073.50;21052956;28;20222;-67
2021/12/30 22:43:58;;;;;;;100.20;33.57;;;;;;;5.12;100.00;100060.28;21058655;27;20971;-67
2021/12/30 22:54:02;;;;;;;91.00;31.47;;;;;;;5.19;100.00;100067.03;21055805;28;20238;-67
2021/12/30 23:04:05;;;;;;;80.67;31.23;;;;;;;5.20;100.00;100058.13;21056976;28;20219;-68
2021/12/30 23:24:10;;;;;;;62.93;26.93;;;;;;;5.21;100.00;100040.47;21074193;27;20549;-68
2021/12/30 23:34:13;;;;;;;51.63;23.80;;;;;;;5.25;100.00;100026.19;21057631;27;20222;-65
2021/12/30 23:44:17;;;;;;;49.80;23.17;;;;;;;5.33;100.00;100032.81;21057323;27;20353;-66
2021/12/30 23:54:20;;;;;;;45.87;21.57;;;;;;;5.36;100.00;100032.69;21056662;27;20218;-66
